createdAt,value
2023-08-27T00:02:17.365Z,9.55
2023-08-27T00:05:16.306Z,9.07
2023-08-27T00:08:14.349Z,8.32
2023-08-27T00:11:12.295Z,9.40
2023-08-27T00:14:10.337Z,9.20
2023-08-27T00:17:10.305Z,8.95
2023-08-27T00:20:10.154Z,8.88
2023-08-27T00:23:08.359Z,8.77
2023-08-27T00:26:05.343Z,9.88
2023-08-27T00:29:03.300Z,8.95
2023-08-27T00:32:01.990Z,9.52
2023-08-27T00:35:03.336Z,8.65
2023-08-27T00:38:01.443Z,9.30
2023-08-27T00:40:59.287Z,9.38
2023-08-27T00:43:56.385Z,8.85
2023-08-27T00:46:55.346Z,8.85
2023-08-27T00:49:53.490Z,9.10
2023-08-27T00:52:51.331Z,9.32
2023-08-27T00:55:51.531Z,9.60
2023-08-27T00:58:49.316Z,9.05
2023-08-27T01:01:47.433Z,8.98
2023-08-27T01:04:45.331Z,9.50
2023-08-27T01:08:32.374Z,9.88
2023-08-27T01:11:39.352Z,8.73
2023-08-27T01:14:50.336Z,9.43
2023-08-27T01:17:55.383Z,10.68
2023-08-27T01:20:52.456Z,9.07
2023-08-27T01:23:50.378Z,9.07
2023-08-27T01:27:04.447Z,9.00
2023-08-27T01:30:11.372Z,9.38
2023-08-27T01:33:22.466Z,9.70
2023-08-27T01:36:20.339Z,8.88
2023-08-27T01:39:20.432Z,8.77
2023-08-27T01:42:18.361Z,8.63
2023-08-27T01:45:17.917Z,9.07
2023-08-27T01:48:16.421Z,9.05
2023-08-27T01:51:14.525Z,9.43
2023-08-27T01:54:12.435Z,9.50
2023-08-27T01:57:10.533Z,9.43
2023-08-27T02:00:08.427Z,9.65
2023-08-27T02:03:21.425Z,9.27
2023-08-27T02:06:25.470Z,10.00
2023-08-27T02:09:22.472Z,9.38
2023-08-27T02:12:20.427Z,9.25
2023-08-27T02:15:18.486Z,9.63
2023-08-27T02:18:16.438Z,10.20
2023-08-27T02:21:13.474Z,9.50
2023-08-27T02:24:11.430Z,10.43
2023-08-27T02:27:09.461Z,9.65
2023-08-27T02:30:07.471Z,9.68
2023-08-27T02:33:05.473Z,9.68
2023-08-27T02:36:03.476Z,10.00
2023-08-27T02:39:01.534Z,10.13
2023-08-27T02:41:59.434Z,9.43
2023-08-27T02:44:57.481Z,10.45
2023-08-27T02:47:55.480Z,9.57
2023-08-27T02:50:52.468Z,9.70
2023-08-27T02:53:50.516Z,10.15
2023-08-27T02:56:47.501Z,10.88
2023-08-27T02:59:45.453Z,9.75
2023-08-27T03:02:43.518Z,10.10
2023-08-27T03:05:48.556Z,11.45
2023-08-27T03:08:46.595Z,10.00
2023-08-27T03:11:43.485Z,10.98
2023-08-27T03:14:34.658Z,10.25
2023-08-27T03:17:38.472Z,10.30
2023-08-27T03:20:30.252Z,10.73
2023-08-27T03:23:37.469Z,10.20
2023-08-27T03:26:28.749Z,10.98
2023-08-27T03:29:34.477Z,11.45
2023-08-27T03:32:25.724Z,11.63
2023-08-27T03:35:30.506Z,10.70
2023-08-27T03:38:21.727Z,12.10
2023-08-27T03:41:26.481Z,10.73
2023-08-27T03:44:17.801Z,11.70
2023-08-27T03:47:22.548Z,11.55
2023-08-27T03:50:13.797Z,11.52
2023-08-27T03:53:19.472Z,11.35
2023-08-27T03:56:10.828Z,10.60
2023-08-27T03:59:15.487Z,11.60
2023-08-27T04:02:08.305Z,12.07
2023-08-27T04:05:13.534Z,11.23
2023-08-27T04:08:04.918Z,11.70
2023-08-27T04:11:09.530Z,12.77
2023-08-27T04:14:00.748Z,11.65
2023-08-27T04:17:05.510Z,12.60
2023-08-27T04:19:56.749Z,13.65
2023-08-27T04:23:00.780Z,13.15
2023-08-27T04:25:52.628Z,13.15
2023-08-27T04:28:57.505Z,13.80
2023-08-27T04:32:08.504Z,15.05
2023-08-27T04:35:12.478Z,12.68
2023-08-27T04:38:10.800Z,13.70
2023-08-27T04:44:07.606Z,13.98
2023-08-27T04:47:07.514Z,11.93
2023-08-27T04:50:05.550Z,13.95
2023-08-27T04:53:03.503Z,13.00
2023-08-27T04:56:01.750Z,13.05
2023-08-27T04:58:59.544Z,13.27
2023-08-27T05:01:59.967Z,11.82
2023-08-27T05:04:57.531Z,14.98
2023-08-27T05:07:55.588Z,11.10
2023-08-27T05:10:53.591Z,12.27
2023-08-27T05:13:50.588Z,11.85
2023-08-27T05:16:48.562Z,12.45
2023-08-27T05:19:46.694Z,11.93
2023-08-27T05:22:44.618Z,12.93
2023-08-27T05:25:42.931Z,12.68
2023-08-27T05:28:42.572Z,13.20
2023-08-27T05:31:40.778Z,12.82
2023-08-27T05:34:38.585Z,12.85
2023-08-27T05:37:36.668Z,11.98
2023-08-27T05:40:34.590Z,12.70
2023-08-27T05:43:31.610Z,12.30
2023-08-27T05:46:29.606Z,11.95
2023-08-27T05:49:26.651Z,12.35
2023-08-27T05:52:24.612Z,11.23
2023-08-27T05:55:22.627Z,9.85
2023-08-27T05:58:20.596Z,10.07
2023-08-27T06:01:18.667Z,10.07
2023-08-27T06:04:16.554Z,10.23
2023-08-27T06:07:13.672Z,9.27
2023-08-27T06:10:11.592Z,8.85
2023-08-27T06:13:22.584Z,9.35
2023-08-27T06:16:26.624Z,9.88
2023-08-27T06:19:28.639Z,8.98
2023-08-27T06:22:34.594Z,9.18
2023-08-27T06:25:32.686Z,9.52
2023-08-27T06:28:30.594Z,8.63
2023-08-27T06:31:28.072Z,9.15
2023-08-27T06:34:32.677Z,8.38
2023-08-27T06:37:43.612Z,9.70
2023-08-27T06:40:48.629Z,9.20
2023-08-27T06:43:45.701Z,8.73
2023-08-27T06:46:43.616Z,9.38
2023-08-27T06:49:41.749Z,8.75
2023-08-27T06:52:39.648Z,9.65
2023-08-27T06:55:37.729Z,9.50
2023-08-27T06:58:36.680Z,9.48
2023-08-27T07:01:34.725Z,9.90
2023-08-27T07:04:32.667Z,9.93
2023-08-27T07:07:30.751Z,9.45
2023-08-27T07:10:28.678Z,9.55
2023-08-27T07:13:25.723Z,9.15
2023-08-27T07:16:23.681Z,10.40
2023-08-27T07:19:21.745Z,9.63
2023-08-27T07:22:19.707Z,9.35
2023-08-27T07:25:19.515Z,9.60
2023-08-27T07:28:17.675Z,9.52
2023-08-27T07:31:15.796Z,8.45
2023-08-27T07:34:19.694Z,8.45
2023-08-27T07:37:10.728Z,8.55
2023-08-27T07:40:16.697Z,8.48
2023-08-27T07:43:07.841Z,7.97
2023-08-27T07:46:11.827Z,8.45
2023-08-27T07:49:02.751Z,8.07
2023-08-27T07:52:07.713Z,8.25
2023-08-27T07:54:58.793Z,8.00
2023-08-27T07:58:03.853Z,8.43
2023-08-27T08:01:05.923Z,8.15
2023-08-27T08:04:03.794Z,7.37
2023-08-27T08:06:55.049Z,7.12
2023-08-27T08:09:59.710Z,7.28
2023-08-27T08:12:52.761Z,7.20
2023-08-27T08:16:00.747Z,7.50
2023-08-27T08:18:52.043Z,7.07
2023-08-27T08:21:55.714Z,7.00
2023-08-27T08:24:47.335Z,6.75
2023-08-27T08:27:51.698Z,7.10
2023-08-27T08:30:49.314Z,7.18
2023-08-27T08:33:53.757Z,6.93
2023-08-27T08:36:45.035Z,7.65
2023-08-27T08:39:49.744Z,7.40
2023-08-27T08:42:49.292Z,7.15
2023-08-27T08:46:18.875Z,6.97
2023-08-27T08:49:15.228Z,7.37
2023-08-27T08:52:22.750Z,7.12
2023-08-27T08:55:15.901Z,6.95
2023-08-27T08:58:25.750Z,6.93
2023-08-27T09:01:18.450Z,6.72
2023-08-27T09:04:29.742Z,6.60
2023-08-27T09:07:29.085Z,7.05
2023-08-27T09:10:33.807Z,7.30
2023-08-27T09:13:25.120Z,7.35
2023-08-27T09:16:29.829Z,7.32
2023-08-27T09:19:21.134Z,7.20
2023-08-27T09:22:24.853Z,7.85
2023-08-27T09:25:16.057Z,7.55
2023-08-27T09:28:21.863Z,7.50
2023-08-27T09:31:52.453Z,7.40
2023-08-27T09:34:57.808Z,6.93
2023-08-27T09:37:49.095Z,7.37
2023-08-27T09:40:53.781Z,7.15
2023-08-27T09:43:55.065Z,7.03
2023-08-27T09:47:00.801Z,6.78
2023-08-27T09:49:52.110Z,7.47
2023-08-27T09:52:56.837Z,7.00
2023-08-27T09:55:51.116Z,6.55
2023-08-27T09:58:55.867Z,6.37
2023-08-27T10:01:48.824Z,6.37
2023-08-27T10:05:04.860Z,6.85
2023-08-27T10:08:03.647Z,7.05
2023-08-27T10:11:24.878Z,6.57
2023-08-27T10:14:18.955Z,6.60
2023-08-27T10:17:25.000Z,6.37
2023-08-27T10:20:17.156Z,6.57
2023-08-27T10:23:23.836Z,6.82
2023-08-27T10:26:15.608Z,6.95
2023-08-27T10:29:20.848Z,6.75
2023-08-27T10:32:12.135Z,7.47
2023-08-27T10:35:16.881Z,6.93
2023-08-27T10:38:09.198Z,7.12
2023-08-27T10:41:14.930Z,6.43
2023-08-27T10:44:10.033Z,6.62
2023-08-27T10:47:24.943Z,7.07
2023-08-27T10:50:21.787Z,6.20
2023-08-27T10:53:26.934Z,6.65
2023-08-27T10:56:37.418Z,6.57
2023-08-27T10:59:42.915Z,6.03
2023-08-27T11:02:59.212Z,6.78
2023-08-27T11:06:26.895Z,6.45
2023-08-27T11:09:23.504Z,6.75
2023-08-27T11:12:40.910Z,6.37
2023-08-27T11:15:32.728Z,6.30
2023-08-27T11:18:56.923Z,6.12
2023-08-27T11:22:06.647Z,5.93
2023-08-27T11:25:10.911Z,6.10
2023-08-27T11:28:03.394Z,5.75
2023-08-27T11:31:08.952Z,6.25
2023-08-27T11:34:01.267Z,5.85
2023-08-27T11:37:04.962Z,5.87
2023-08-27T11:39:56.180Z,5.72
2023-08-27T11:43:07.985Z,5.82
2023-08-27T11:45:59.317Z,6.15
2023-08-27T11:49:03.941Z,6.03
2023-08-27T11:51:59.645Z,6.35
2023-08-27T11:55:05.007Z,5.97
2023-08-27T11:57:56.335Z,6.05
2023-08-27T12:01:07.996Z,5.93
2023-08-27T12:03:59.384Z,6.25
2023-08-27T12:07:07.986Z,6.20
2023-08-27T12:10:02.087Z,6.07
2023-08-27T12:13:05.974Z,6.80
2023-08-27T12:15:57.294Z,5.57
2023-08-27T12:19:01.989Z,5.78
2023-08-27T12:21:54.449Z,5.93
2023-08-27T12:24:58.992Z,5.72
2023-08-27T12:27:49.286Z,9.23
2023-08-27T12:31:06.106Z,5.80
2023-08-27T12:34:04.648Z,5.65
2023-08-27T12:37:09.062Z,5.82
2023-08-27T12:40:00.457Z,5.45
2023-08-27T12:43:06.041Z,5.55
2023-08-27T12:45:57.389Z,5.65
2023-08-27T12:49:02.011Z,5.28
2023-08-27T12:51:53.898Z,5.55
2023-08-27T12:54:58.064Z,5.97
2023-08-27T12:57:49.290Z,5.65
2023-08-27T13:00:54.071Z,5.53
2023-08-27T13:03:45.418Z,5.85
2023-08-27T13:06:51.051Z,5.50
2023-08-27T13:09:42.323Z,5.62
2023-08-27T13:12:46.109Z,5.85
2023-08-27T13:15:37.288Z,5.93
2023-08-27T13:18:42.075Z,5.87
2023-08-27T13:21:33.363Z,5.60
2023-08-27T13:24:38.072Z,5.35
2023-08-27T13:27:30.661Z,5.60
2023-08-27T13:30:35.088Z,6.12
2023-08-27T13:33:26.363Z,6.28
2023-08-27T13:36:37.090Z,5.70
2023-08-27T13:39:35.304Z,5.70
2023-08-27T13:42:39.150Z,5.90
2023-08-27T13:45:30.326Z,6.10
2023-08-27T13:48:35.093Z,5.50
2023-08-27T13:51:26.477Z,5.62
2023-08-27T13:54:31.084Z,5.35
2023-08-27T13:57:22.408Z,5.40
2023-08-27T14:00:27.081Z,6.15
2023-08-27T14:03:18.466Z,6.18
2023-08-27T14:06:23.127Z,5.28
2023-08-27T14:09:14.453Z,5.62
2023-08-27T14:12:19.165Z,5.45
2023-08-27T14:15:30.113Z,5.20
2023-08-27T14:18:34.124Z,4.97
2023-08-27T14:21:45.122Z,5.57
2023-08-27T14:24:49.108Z,4.90
2023-08-27T14:27:46.395Z,5.00
2023-08-27T14:30:44.180Z,4.70
2023-08-27T14:33:41.214Z,5.10
2023-08-27T14:36:39.113Z,5.30
2023-08-27T14:39:37.896Z,5.78
2023-08-27T14:45:36.167Z,5.20
2023-08-27T14:48:40.186Z,5.78
2023-08-27T14:51:31.184Z,5.60
2023-08-27T14:54:35.146Z,5.40
2023-08-27T14:57:33.269Z,6.10
2023-08-27T15:00:31.197Z,6.10
2023-08-27T15:03:22.564Z,6.53
2023-08-27T15:06:27.140Z,6.20
2023-08-27T15:09:18.404Z,6.05
2023-08-27T15:12:30.194Z,6.18
2023-08-27T15:15:23.214Z,6.62
2023-08-27T15:18:28.200Z,6.05
2023-08-27T15:21:19.580Z,6.00
2023-08-27T15:24:24.168Z,6.15
2023-08-27T15:27:15.495Z,6.43
2023-08-27T15:30:20.250Z,6.30
2023-08-27T15:33:11.450Z,5.82
2023-08-27T15:36:15.242Z,5.47
2023-08-27T15:39:06.905Z,6.28
2023-08-27T15:42:11.194Z,5.93
2023-08-27T15:45:01.595Z,6.90
2023-08-27T15:48:05.609Z,7.00
2023-08-27T15:50:56.504Z,6.25
2023-08-27T15:54:01.222Z,7.03
2023-08-27T15:56:52.645Z,6.55
2023-08-27T15:59:57.229Z,6.70
2023-08-27T16:02:48.530Z,6.45
2023-08-27T16:05:53.266Z,6.43
2023-08-27T16:08:45.010Z,6.55
2023-08-27T16:11:56.288Z,6.37
2023-08-27T16:14:53.532Z,7.30
2023-08-27T16:17:58.293Z,6.78
2023-08-27T16:20:49.617Z,7.53
2023-08-27T16:23:53.334Z,6.70
2023-08-27T16:26:44.480Z,7.40
2023-08-27T16:29:49.250Z,7.78
2023-08-27T16:32:39.619Z,7.93
2023-08-27T16:35:44.249Z,7.97
2023-08-27T16:38:35.548Z,7.32
2023-08-27T16:41:40.319Z,7.40
2023-08-27T16:44:31.531Z,6.80
2023-08-27T16:47:35.300Z,7.45
2023-08-27T16:50:26.561Z,6.87
2023-08-27T16:53:31.299Z,7.40
2023-08-27T16:56:42.266Z,7.68
2023-08-27T16:59:46.303Z,7.28
2023-08-27T17:02:44.473Z,8.02
2023-08-27T17:05:42.313Z,8.27
2023-08-27T17:08:39.330Z,7.65
2023-08-27T17:11:37.334Z,9.75
2023-08-27T17:14:34.360Z,6.70
2023-08-27T17:17:39.387Z,8.40
2023-08-27T17:20:30.399Z,7.57
2023-08-27T17:23:34.299Z,8.48
2023-08-27T17:26:25.484Z,7.12
2023-08-27T17:29:30.324Z,17.37
2023-08-27T17:32:21.505Z,7.75
2023-08-27T17:35:26.353Z,7.35
2023-08-27T17:38:17.369Z,8.40
2023-08-27T17:41:24.304Z,8.48
2023-08-27T17:44:22.427Z,9.25
2023-08-27T17:47:20.346Z,7.43
2023-08-27T17:50:13.745Z,8.15
2023-08-27T17:53:18.479Z,8.15
2023-08-27T17:56:09.691Z,8.30
2023-08-27T17:59:15.470Z,10.13
2023-08-27T18:02:06.695Z,8.15
2023-08-27T18:05:11.353Z,8.65
2023-08-27T18:08:03.188Z,8.75
2023-08-27T18:11:07.389Z,8.80
2023-08-27T18:13:58.613Z,8.60
2023-08-27T18:17:03.415Z,9.13
2023-08-27T18:19:54.612Z,9.43
2023-08-27T18:22:59.394Z,8.73
2023-08-27T18:25:50.587Z,8.57
2023-08-27T18:28:54.374Z,11.10
2023-08-27T18:31:46.239Z,10.32
2023-08-27T18:34:52.384Z,8.93
2023-08-27T18:37:43.732Z,9.15
2023-08-27T18:40:48.447Z,8.73
2023-08-27T18:43:39.743Z,9.80
2023-08-27T18:46:45.383Z,9.80
2023-08-27T18:49:36.816Z,9.13
2023-08-27T18:52:40.404Z,9.35
2023-08-27T18:55:31.806Z,8.43
2023-08-27T18:58:36.474Z,8.20
2023-08-27T19:01:28.208Z,8.88
2023-08-27T19:04:34.412Z,8.43
2023-08-27T19:07:24.633Z,9.02
2023-08-27T19:10:28.635Z,9.38
2023-08-27T19:13:39.419Z,9.85
2023-08-27T19:16:44.462Z,9.48
2023-08-27T19:19:41.523Z,8.68
2023-08-27T19:22:39.869Z,9.27
2023-08-27T19:25:38.501Z,9.52
2023-08-27T19:28:36.506Z,9.30
2023-08-27T19:31:45.933Z,10.02
2023-08-27T19:34:45.330Z,9.90
2023-08-27T19:37:42.474Z,9.43
2023-08-27T19:40:40.438Z,9.27
2023-08-27T19:43:37.502Z,9.18
2023-08-27T19:46:35.488Z,9.43
2023-08-27T19:49:32.694Z,9.35
2023-08-27T19:52:30.514Z,10.00
2023-08-27T19:55:28.536Z,10.07
2023-08-27T19:58:26.486Z,31.92
2023-08-27T20:01:24.563Z,22.55
2023-08-27T20:04:22.480Z,15.98
2023-08-27T20:07:20.583Z,11.10
2023-08-27T20:10:18.522Z,11.80
2023-08-27T20:13:15.829Z,10.45
2023-08-27T20:16:13.549Z,10.13
2023-08-27T20:19:24.461Z,9.27
2023-08-27T20:22:28.507Z,8.80
2023-08-27T20:25:25.538Z,9.63
2023-08-27T20:28:25.550Z,9.48
2023-08-27T20:31:23.637Z,9.15
2023-08-27T20:34:21.528Z,8.90
2023-08-27T20:37:19.707Z,9.90
2023-08-27T20:40:18.550Z,9.88
2023-08-27T20:43:15.680Z,9.27
2023-08-27T20:46:13.547Z,9.45
2023-08-27T20:49:10.610Z,9.30
2023-08-27T20:52:07.544Z,9.80
2023-08-27T20:55:19.486Z,9.57
2023-08-27T20:58:23.488Z,9.18
2023-08-27T21:01:20.702Z,9.23
2023-08-27T21:04:24.617Z,9.40
2023-08-27T21:07:15.608Z,8.80
2023-08-27T21:10:20.539Z,8.95
2023-08-27T21:13:11.708Z,8.88
2023-08-27T21:16:16.615Z,8.02
2023-08-27T21:19:13.618Z,8.35
2023-08-27T21:22:11.596Z,9.20
2023-08-27T21:25:10.148Z,8.27
2023-08-27T21:28:08.609Z,8.27
2023-08-27T21:31:19.805Z,8.23
2023-08-27T21:34:23.606Z,7.60
2023-08-27T21:37:21.625Z,8.45
2023-08-27T21:40:19.600Z,8.65
2023-08-27T21:43:16.702Z,7.85
2023-08-27T21:46:14.618Z,8.48
2023-08-27T21:49:12.902Z,8.60
2023-08-27T21:52:16.598Z,8.07
2023-08-27T21:55:07.683Z,7.80
2023-08-27T21:58:12.656Z,7.62
2023-08-27T22:01:03.749Z,7.40
2023-08-27T22:04:07.786Z,6.53
2023-08-27T22:06:58.640Z,7.05
2023-08-27T22:10:02.631Z,6.15
2023-08-27T22:12:53.721Z,7.20
2023-08-27T22:15:58.587Z,6.53
2023-08-27T22:18:49.750Z,5.95
2023-08-27T22:21:54.625Z,5.93
2023-08-27T22:24:46.692Z,6.05
2023-08-27T22:27:50.626Z,6.00
2023-08-27T22:30:41.762Z,5.40
2023-08-27T22:33:52.655Z,5.80
2023-08-27T22:36:50.223Z,4.85
2023-08-27T22:40:01.675Z,5.65
2023-08-27T22:42:58.865Z,5.30
2023-08-27T22:46:02.871Z,6.32
2023-08-27T22:48:53.865Z,5.70
2023-08-27T22:51:57.634Z,4.65
2023-08-27T22:55:08.597Z,5.75
2023-08-27T22:58:12.654Z,6.10
2023-08-27T23:01:10.805Z,5.65
2023-08-27T23:04:08.667Z,5.70
2023-08-27T23:07:19.629Z,6.05
2023-08-27T23:10:24.701Z,5.15
2023-08-27T23:13:22.719Z,6.15
2023-08-27T23:16:20.870Z,5.57
2023-08-27T23:19:17.699Z,6.07
2023-08-27T23:22:15.696Z,5.28
2023-08-27T23:25:13.705Z,5.40
2023-08-27T23:28:17.747Z,5.10
2023-08-27T23:31:08.741Z,4.95
2023-08-27T23:34:12.702Z,4.82
2023-08-27T23:37:03.722Z,5.20
2023-08-27T23:40:07.685Z,5.25
2023-08-27T23:42:58.793Z,5.30
2023-08-27T23:46:02.690Z,5.18
2023-08-27T23:48:53.722Z,5.00
2023-08-27T23:51:57.694Z,5.85
2023-08-27T23:54:48.789Z,5.70
2023-08-27T23:57:52.741Z,5.28
